sensor_id;sensor_type;location;lat;lon;timestamp;P1;durP1;ratioP1;P2;durP2;ratioP2
40489;SDS011;26196;52.302;10.572;2023-02-28T00:03:41;2.88;;;1.85;;
40489;SDS011;26196;52.302;10.572;2023-02-28T00:07:41;2.63;;;1.60;;
40489;SDS011;26196;52.302;10.572;2023-02-28T00:11:42;3.90;;;1.90;;
40489;SDS011;26196;52.302;10.572;2023-02-28T00:15:42;2.25;;;1.70;;
40489;SDS011;26196;52.302;10.572;2023-02-28T00:24:01;4.05;;;1.67;;
40489;SDS011;26196;52.302;10.572;2023-02-28T00:28:02;3.17;;;1.70;;
40489;SDS011;26196;52.302;10.572;2023-02-28T00:36:37;2.47;;;1.45;;
40489;SDS011;26196;52.302;10.572;2023-02-28T00:40:38;1.98;;;1.15;;
40489;SDS011;26196;52.302;10.572;2023-02-28T00:44:38;3.33;;;1.30;;
40489;SDS011;26196;52.302;10.572;2023-02-28T00:48:38;2.10;;;1.13;;
40489;SDS011;26196;52.302;10.572;2023-02-28T00:52:47;3.47;;;2.05;;
40489;SDS011;26196;52.302;10.572;2023-02-28T00:56:48;5.70;;;3.25;;
40489;SDS011;26196;52.302;10.572;2023-02-28T01:00:51;2.70;;;1.50;;
40489;SDS011;26196;52.302;10.572;2023-02-28T01:04:52;3.35;;;1.70;;
40489;SDS011;26196;52.302;10.572;2023-02-28T01:08:53;2.25;;;1.50;;
40489;SDS011;26196;52.302;10.572;2023-02-28T01:12:54;2.35;;;1.20;;
40489;SDS011;26196;52.302;10.572;2023-02-28T01:16:54;2.25;;;1.10;;
40489;SDS011;26196;52.302;10.572;2023-02-28T01:24:58;3.30;;;1.17;;
40489;SDS011;26196;52.302;10.572;2023-02-28T01:28:58;1.67;;;1.00;;
40489;SDS011;26196;52.302;10.572;2023-02-28T01:37:09;3.35;;;1.30;;
40489;SDS011;26196;52.302;10.572;2023-02-28T01:41:11;2.90;;;1.60;;
40489;SDS011;26196;52.302;10.572;2023-02-28T01:45:22;2.55;;;1.45;;
40489;SDS011;26196;52.302;10.572;2023-02-28T01:49:28;2.90;;;1.42;;
40489;SDS011;26196;52.302;10.572;2023-02-28T01:53:30;2.17;;;1.25;;
40489;SDS011;26196;52.302;10.572;2023-02-28T02:02:07;2.65;;;1.40;;
40489;SDS011;26196;52.302;10.572;2023-02-28T02:06:07;2.80;;;1.70;;
40489;SDS011;26196;52.302;10.572;2023-02-28T02:10:18;2.50;;;1.15;;
40489;SDS011;26196;52.302;10.572;2023-02-28T02:14:26;2.03;;;1.38;;
40489;SDS011;26196;52.302;10.572;2023-02-28T02:35:40;2.15;;;1.33;;
40489;SDS011;26196;52.302;10.572;2023-02-28T02:40:10;3.28;;;1.27;;
40489;SDS011;26196;52.302;10.572;2023-02-28T02:48:49;1.65;;;1.00;;
40489;SDS011;26196;52.302;10.572;2023-02-28T02:52:55;4.00;;;1.67;;
40489;SDS011;26196;52.302;10.572;2023-02-28T02:56:59;2.03;;;1.30;;
40489;SDS011;26196;52.302;10.572;2023-02-28T03:01:04;2.33;;;1.73;;
40489;SDS011;26196;52.302;10.572;2023-02-28T03:09:28;3.33;;;1.17;;
40489;SDS011;26196;52.302;10.572;2023-02-28T03:18:29;2.08;;;1.33;;
40489;SDS011;26196;52.302;10.572;2023-02-28T03:22:48;2.55;;;2.03;;
40489;SDS011;26196;52.302;10.572;2023-02-28T03:27:07;2.60;;;1.50;;
40489;SDS011;26196;52.302;10.572;2023-02-28T03:35:14;2.27;;;1.70;;
40489;SDS011;26196;52.302;10.572;2023-02-28T03:43:40;2.50;;;1.60;;
40489;SDS011;26196;52.302;10.572;2023-02-28T03:47:53;2.83;;;1.58;;
40489;SDS011;26196;52.302;10.572;2023-02-28T03:52:03;2.63;;;1.60;;
40489;SDS011;26196;52.302;10.572;2023-02-28T03:56:08;3.88;;;2.08;;
40489;SDS011;26196;52.302;10.572;2023-02-28T04:00:17;2.90;;;1.90;;
40489;SDS011;26196;52.302;10.572;2023-02-28T04:04:29;2.15;;;1.70;;
40489;SDS011;26196;52.302;10.572;2023-02-28T04:08:29;3.15;;;1.50;;
40489;SDS011;26196;52.302;10.572;2023-02-28T04:12:30;4.38;;;1.88;;
40489;SDS011;26196;52.302;10.572;2023-02-28T04:16:34;3.58;;;1.85;;
40489;SDS011;26196;52.302;10.572;2023-02-28T04:20:36;3.78;;;1.88;;
40489;SDS011;26196;52.302;10.572;2023-02-28T04:24:36;2.08;;;1.33;;
40489;SDS011;26196;52.302;10.572;2023-02-28T04:28:41;3.38;;;1.90;;
40489;SDS011;26196;52.302;10.572;2023-02-28T04:32:41;3.42;;;1.95;;
40489;SDS011;26196;52.302;10.572;2023-02-28T04:36:42;4.82;;;1.95;;
40489;SDS011;26196;52.302;10.572;2023-02-28T04:40:48;5.10;;;1.95;;
40489;SDS011;26196;52.302;10.572;2023-02-28T04:48:49;4.57;;;2.22;;
40489;SDS011;26196;52.302;10.572;2023-02-28T04:52:49;4.43;;;2.15;;
40489;SDS011;26196;52.302;10.572;2023-02-28T04:56:49;6.05;;;2.10;;
40489;SDS011;26196;52.302;10.572;2023-02-28T05:00:50;6.00;;;2.20;;
40489;SDS011;26196;52.302;10.572;2023-02-28T05:04:51;3.28;;;1.77;;
40489;SDS011;26196;52.302;10.572;2023-02-28T05:08:52;4.88;;;2.22;;
40489;SDS011;26196;52.302;10.572;2023-02-28T05:12:52;5.38;;;2.30;;
40489;SDS011;26196;52.302;10.572;2023-02-28T05:16:53;4.72;;;2.08;;
40489;SDS011;26196;52.302;10.572;2023-02-28T05:20:53;6.85;;;2.50;;
40489;SDS011;26196;52.302;10.572;2023-02-28T05:24:54;9.10;;;2.35;;
40489;SDS011;26196;52.302;10.572;2023-02-28T05:28:55;7.72;;;2.35;;
40489;SDS011;26196;52.302;10.572;2023-02-28T05:32:56;5.05;;;2.30;;
40489;SDS011;26196;52.302;10.572;2023-02-28T05:36:56;7.40;;;2.67;;
40489;SDS011;26196;52.302;10.572;2023-02-28T05:40:56;4.32;;;2.10;;
40489;SDS011;26196;52.302;10.572;2023-02-28T05:44:57;4.00;;;2.42;;
40489;SDS011;26196;52.302;10.572;2023-02-28T05:48:57;8.60;;;2.58;;
40489;SDS011;26196;52.302;10.572;2023-02-28T05:53:01;5.75;;;2.20;;
40489;SDS011;26196;52.302;10.572;2023-02-28T05:57:01;3.50;;;1.67;;
40489;SDS011;26196;52.302;10.572;2023-02-28T06:01:19;4.68;;;2.63;;
40489;SDS011;26196;52.302;10.572;2023-02-28T06:05:33;2.88;;;1.80;;
40489;SDS011;26196;52.302;10.572;2023-02-28T06:09:34;4.03;;;1.98;;
40489;SDS011;26196;52.302;10.572;2023-02-28T06:13:34;4.97;;;2.35;;
40489;SDS011;26196;52.302;10.572;2023-02-28T06:17:36;3.50;;;2.00;;
40489;SDS011;26196;52.302;10.572;2023-02-28T06:21:37;7.15;;;2.28;;
40489;SDS011;26196;52.302;10.572;2023-02-28T06:25:38;3.17;;;1.88;;
40489;SDS011;26196;52.302;10.572;2023-02-28T06:29:38;4.85;;;2.22;;
40489;SDS011;26196;52.302;10.572;2023-02-28T06:33:42;4.43;;;1.85;;
40489;SDS011;26196;52.302;10.572;2023-02-28T06:37:43;3.53;;;2.05;;
40489;SDS011;26196;52.302;10.572;2023-02-28T06:41:44;3.13;;;2.10;;
40489;SDS011;26196;52.302;10.572;2023-02-28T06:45:45;3.47;;;2.65;;
40489;SDS011;26196;52.302;10.572;2023-02-28T06:49:46;2.80;;;1.92;;
40489;SDS011;26196;52.302;10.572;2023-02-28T06:53:46;4.15;;;2.15;;
40489;SDS011;26196;52.302;10.572;2023-02-28T06:57:46;5.03;;;2.40;;
40489;SDS011;26196;52.302;10.572;2023-02-28T07:01:47;4.07;;;2.00;;
40489;SDS011;26196;52.302;10.572;2023-02-28T07:05:47;4.57;;;2.00;;
40489;SDS011;26196;52.302;10.572;2023-02-28T07:09:48;2.42;;;1.77;;
40489;SDS011;26196;52.302;10.572;2023-02-28T07:13:49;4.88;;;1.95;;
40489;SDS011;26196;52.302;10.572;2023-02-28T07:17:50;3.28;;;1.73;;
40489;SDS011;26196;52.302;10.572;2023-02-28T07:21:51;4.45;;;2.17;;
40489;SDS011;26196;52.302;10.572;2023-02-28T07:25:51;3.10;;;2.15;;
40489;SDS011;26196;52.302;10.572;2023-02-28T07:29:52;6.03;;;3.40;;
40489;SDS011;26196;52.302;10.572;2023-02-28T07:33:53;4.43;;;1.85;;
40489;SDS011;26196;52.302;10.572;2023-02-28T07:37:53;3.70;;;2.00;;
40489;SDS011;26196;52.302;10.572;2023-02-28T07:41:54;2.83;;;1.40;;
40489;SDS011;26196;52.302;10.572;2023-02-28T07:45:54;4.00;;;2.20;;
40489;SDS011;26196;52.302;10.572;2023-02-28T07:49:55;3.65;;;1.75;;
40489;SDS011;26196;52.302;10.572;2023-02-28T07:53:56;4.80;;;2.50;;
40489;SDS011;26196;52.302;10.572;2023-02-28T07:57:56;4.57;;;1.63;;
40489;SDS011;26196;52.302;10.572;2023-02-28T08:01:57;2.47;;;2.00;;
40489;SDS011;26196;52.302;10.572;2023-02-28T08:05:58;3.33;;;2.22;;
40489;SDS011;26196;52.302;10.572;2023-02-28T08:09:59;4.60;;;2.47;;
40489;SDS011;26196;52.302;10.572;2023-02-28T08:14:00;5.47;;;2.10;;
40489;SDS011;26196;52.302;10.572;2023-02-28T08:18:00;5.40;;;2.38;;
40489;SDS011;26196;52.302;10.572;2023-02-28T08:22:00;3.55;;;2.38;;
40489;SDS011;26196;52.302;10.572;2023-02-28T08:26:01;2.65;;;1.85;;
40489;SDS011;26196;52.302;10.572;2023-02-28T08:30:02;3.00;;;1.85;;
40489;SDS011;26196;52.302;10.572;2023-02-28T08:34:07;1.63;;;1.25;;
40489;SDS011;26196;52.302;10.572;2023-02-28T08:38:12;4.75;;;1.75;;
40489;SDS011;26196;52.302;10.572;2023-02-28T08:42:13;3.67;;;2.45;;
40489;SDS011;26196;52.302;10.572;2023-02-28T08:46:13;4.63;;;2.15;;
40489;SDS011;26196;52.302;10.572;2023-02-28T08:50:14;2.95;;;1.77;;
40489;SDS011;26196;52.302;10.572;2023-02-28T08:54:14;2.15;;;1.15;;
40489;SDS011;26196;52.302;10.572;2023-02-28T08:58:19;2.55;;;1.60;;
40489;SDS011;26196;52.302;10.572;2023-02-28T09:02:19;2.30;;;1.40;;
40489;SDS011;26196;52.302;10.572;2023-02-28T09:06:20;2.30;;;1.30;;
40489;SDS011;26196;52.302;10.572;2023-02-28T09:10:21;1.95;;;1.23;;
40489;SDS011;26196;52.302;10.572;2023-02-28T09:14:22;2.15;;;1.10;;
40489;SDS011;26196;52.302;10.572;2023-02-28T09:18:22;2.25;;;1.20;;
40489;SDS011;26196;52.302;10.572;2023-02-28T09:22:22;2.38;;;0.90;;
40489;SDS011;26196;52.302;10.572;2023-02-28T09:26:23;2.03;;;1.42;;
40489;SDS011;26196;52.302;10.572;2023-02-28T09:30:25;2.35;;;1.40;;
40489;SDS011;26196;52.302;10.572;2023-02-28T09:34:26;1.55;;;1.00;;
40489;SDS011;26196;52.302;10.572;2023-02-28T09:38:27;1.88;;;1.13;;
40489;SDS011;26196;52.302;10.572;2023-02-28T09:42:30;3.42;;;1.70;;
40489;SDS011;26196;52.302;10.572;2023-02-28T09:46:34;2.55;;;1.45;;
40489;SDS011;26196;52.302;10.572;2023-02-28T09:50:44;3.25;;;2.08;;
40489;SDS011;26196;52.302;10.572;2023-02-28T09:54:48;1.73;;;1.27;;
40489;SDS011;26196;52.302;10.572;2023-02-28T09:58:56;2.67;;;1.20;;
40489;SDS011;26196;52.302;10.572;2023-02-28T10:11:50;1.63;;;1.20;;
40489;SDS011;26196;52.302;10.572;2023-02-28T10:15:58;1.25;;;0.77;;
40489;SDS011;26196;52.302;10.572;2023-02-28T10:20:20;1.92;;;1.20;;
40489;SDS011;26196;52.302;10.572;2023-02-28T10:24:34;1.05;;;0.63;;
40489;SDS011;26196;52.302;10.572;2023-02-28T10:28:39;3.33;;;1.00;;
40489;SDS011;26196;52.302;10.572;2023-02-28T10:32:40;1.80;;;0.50;;
40489;SDS011;26196;52.302;10.572;2023-02-28T10:36:49;1.58;;;0.68;;
40489;SDS011;26196;52.302;10.572;2023-02-28T10:40:50;1.30;;;0.70;;
40489;SDS011;26196;52.302;10.572;2023-02-28T10:45:04;1.15;;;0.73;;
40489;SDS011;26196;52.302;10.572;2023-02-28T10:49:16;1.60;;;0.77;;
40489;SDS011;26196;52.302;10.572;2023-02-28T10:58:20;0.63;;;0.35;;
40489;SDS011;26196;52.302;10.572;2023-02-28T11:02:32;3.53;;;0.60;;
40489;SDS011;26196;52.302;10.572;2023-02-28T11:06:34;12.48;;;2.30;;
40489;SDS011;26196;52.302;10.572;2023-02-28T11:10:35;3.55;;;0.80;;
40489;SDS011;26196;52.302;10.572;2023-02-28T11:14:39;3.63;;;0.70;;
40489;SDS011;26196;52.302;10.572;2023-02-28T11:22:51;8.52;;;0.80;;
40489;SDS011;26196;52.302;10.572;2023-02-28T11:26:55;5.85;;;0.80;;
40489;SDS011;26196;52.302;10.572;2023-02-28T11:31:02;11.98;;;1.48;;
40489;SDS011;26196;52.302;10.572;2023-02-28T11:35:21;14.82;;;1.30;;
40489;SDS011;26196;52.302;10.572;2023-02-28T11:39:29;7.82;;;1.88;;
40489;SDS011;26196;52.302;10.572;2023-02-28T11:43:33;6.63;;;1.20;;
40489;SDS011;26196;52.302;10.572;2023-02-28T11:51:47;11.75;;;0.95;;
40489;SDS011;26196;52.302;10.572;2023-02-28T12:12:56;7.93;;;3.00;;
40489;SDS011;26196;52.302;10.572;2023-02-28T12:17:06;4.57;;;0.88;;
40489;SDS011;26196;52.302;10.572;2023-02-28T12:25:39;4.05;;;0.80;;
40489;SDS011;26196;52.302;10.572;2023-02-28T12:29:57;3.70;;;0.57;;
40489;SDS011;26196;52.302;10.572;2023-02-28T12:34:04;1.50;;;0.82;;
40489;SDS011;26196;52.302;10.572;2023-02-28T12:38:14;2.58;;;1.10;;
40489;SDS011;26196;52.302;10.572;2023-02-28T12:42:24;2.58;;;0.60;;
40489;SDS011;26196;52.302;10.572;2023-02-28T12:46:33;2.75;;;0.63;;
40489;SDS011;26196;52.302;10.572;2023-02-28T12:50:36;0.90;;;0.68;;
40489;SDS011;26196;52.302;10.572;2023-02-28T12:54:40;1.30;;;0.60;;
40489;SDS011;26196;52.302;10.572;2023-02-28T12:58:50;0.47;;;0.38;;
40489;SDS011;26196;52.302;10.572;2023-02-28T13:03:09;1.38;;;0.60;;
40489;SDS011;26196;52.302;10.572;2023-02-28T13:11:51;1.02;;;0.73;;
40489;SDS011;26196;52.302;10.572;2023-02-28T13:16:26;2.17;;;1.05;;
40489;SDS011;26196;52.302;10.572;2023-02-28T13:20:24;0.88;;;0.60;;
40489;SDS011;26196;52.302;10.572;2023-02-28T13:45:37;1.88;;;0.65;;
40489;SDS011;26196;52.302;10.572;2023-02-28T13:49:39;2.15;;;0.60;;
40489;SDS011;26196;52.302;10.572;2023-02-28T13:53:46;1.92;;;0.90;;
40489;SDS011;26196;52.302;10.572;2023-02-28T14:06:47;1.02;;;0.70;;
40489;SDS011;26196;52.302;10.572;2023-02-28T14:11:02;2.67;;;0.60;;
40489;SDS011;26196;52.302;10.572;2023-02-28T14:15:26;1.38;;;0.80;;
40489;SDS011;26196;52.302;10.572;2023-02-28T14:19:34;1.17;;;0.65;;
40489;SDS011;26196;52.302;10.572;2023-02-28T14:28:31;1.42;;;0.80;;
40489;SDS011;26196;52.302;10.572;2023-02-28T14:36:58;1.83;;;1.25;;
40489;SDS011;26196;52.302;10.572;2023-02-28T14:41:03;1.10;;;0.60;;
40489;SDS011;26196;52.302;10.572;2023-02-28T14:45:19;2.50;;;1.10;;
40489;SDS011;26196;52.302;10.572;2023-02-28T14:53:29;1.10;;;0.88;;
40489;SDS011;26196;52.302;10.572;2023-02-28T14:57:39;2.58;;;1.35;;
40489;SDS011;26196;52.302;10.572;2023-02-28T15:01:42;1.58;;;0.70;;
40489;SDS011;26196;52.302;10.572;2023-02-28T15:05:42;1.05;;;0.70;;
40489;SDS011;26196;52.302;10.572;2023-02-28T15:10:38;1.70;;;0.80;;
40489;SDS011;26196;52.302;10.572;2023-02-28T15:14:21;1.80;;;1.10;;
40489;SDS011;26196;52.302;10.572;2023-02-28T15:31:19;2.40;;;1.80;;
40489;SDS011;26196;52.302;10.572;2023-02-28T15:35:27;1.65;;;1.33;;
40489;SDS011;26196;52.302;10.572;2023-02-28T15:39:30;1.73;;;0.90;;
40489;SDS011;26196;52.302;10.572;2023-02-28T15:43:39;1.42;;;1.05;;
40489;SDS011;26196;52.302;10.572;2023-02-28T15:47:44;1.50;;;1.10;;
40489;SDS011;26196;52.302;10.572;2023-02-28T15:51:48;1.87;;;1.07;;
40489;SDS011;26196;52.302;10.572;2023-02-28T15:55:54;1.15;;;0.73;;
40489;SDS011;26196;52.302;10.572;2023-02-28T16:00:00;1.90;;;1.35;;
40489;SDS011;26196;52.302;10.572;2023-02-28T16:04:13;3.30;;;1.17;;
40489;SDS011;26196;52.302;10.572;2023-02-28T16:08:15;2.60;;;0.95;;
40489;SDS011;26196;52.302;10.572;2023-02-28T16:12:16;1.58;;;1.20;;
40489;SDS011;26196;52.302;10.572;2023-02-28T16:28:41;2.67;;;1.10;;
40489;SDS011;26196;52.302;10.572;2023-02-28T16:32:43;2.95;;;1.20;;
40489;SDS011;26196;52.302;10.572;2023-02-28T16:36:45;1.42;;;1.13;;
40489;SDS011;26196;52.302;10.572;2023-02-28T16:40:53;2.53;;;1.20;;
40489;SDS011;26196;52.302;10.572;2023-02-28T16:44:55;2.58;;;1.05;;
40489;SDS011;26196;52.302;10.572;2023-02-28T16:48:56;1.85;;;1.25;;
40489;SDS011;26196;52.302;10.572;2023-02-28T16:53:03;2.00;;;1.00;;
40489;SDS011;26196;52.302;10.572;2023-02-28T17:01:13;2.42;;;1.10;;
40489;SDS011;26196;52.302;10.572;2023-02-28T17:05:14;3.33;;;1.20;;
40489;SDS011;26196;52.302;10.572;2023-02-28T17:13:26;2.38;;;0.90;;
40489;SDS011;26196;52.302;10.572;2023-02-28T17:17:27;3.70;;;1.98;;
40489;SDS011;26196;52.302;10.572;2023-02-28T17:21:31;1.45;;;0.95;;
40489;SDS011;26196;52.302;10.572;2023-02-28T17:25:48;1.33;;;1.05;;
40489;SDS011;26196;52.302;10.572;2023-02-28T17:29:53;2.10;;;1.10;;
40489;SDS011;26196;52.302;10.572;2023-02-28T17:33:53;2.55;;;1.40;;
40489;SDS011;26196;52.302;10.572;2023-02-28T17:37:56;3.10;;;1.30;;
40489;SDS011;26196;52.302;10.572;2023-02-28T17:41:58;1.90;;;1.25;;
40489;SDS011;26196;52.302;10.572;2023-02-28T17:50:21;2.42;;;1.88;;
40489;SDS011;26196;52.302;10.572;2023-02-28T17:54:27;5.38;;;2.80;;
40489;SDS011;26196;52.302;10.572;2023-02-28T17:58:34;5.03;;;3.10;;
40489;SDS011;26196;52.302;10.572;2023-02-28T18:02:42;6.60;;;3.08;;
40489;SDS011;26196;52.302;10.572;2023-02-28T18:06:43;3.58;;;2.55;;
40489;SDS011;26196;52.302;10.572;2023-02-28T18:11:02;5.65;;;2.38;;
40489;SDS011;26196;52.302;10.572;2023-02-28T18:19:10;5.55;;;2.33;;
40489;SDS011;26196;52.302;10.572;2023-02-28T18:23:16;3.03;;;1.83;;
40489;SDS011;26196;52.302;10.572;2023-02-28T18:31:29;2.53;;;1.83;;
40489;SDS011;26196;52.302;10.572;2023-02-28T18:35:31;4.78;;;2.25;;
40489;SDS011;26196;52.302;10.572;2023-02-28T18:39:34;3.47;;;2.20;;
40489;SDS011;26196;52.302;10.572;2023-02-28T18:43:35;4.82;;;1.90;;
40489;SDS011;26196;52.302;10.572;2023-02-28T18:51:47;4.00;;;2.13;;
40489;SDS011;26196;52.302;10.572;2023-02-28T18:56:00;3.13;;;2.20;;
40489;SDS011;26196;52.302;10.572;2023-02-28T19:00:02;4.78;;;2.38;;
40489;SDS011;26196;52.302;10.572;2023-02-28T19:04:03;2.88;;;1.90;;
40489;SDS011;26196;52.302;10.572;2023-02-28T19:08:04;4.57;;;2.35;;
40489;SDS011;26196;52.302;10.572;2023-02-28T19:12:04;3.58;;;2.38;;
40489;SDS011;26196;52.302;10.572;2023-02-28T19:16:05;3.28;;;2.20;;
40489;SDS011;26196;52.302;10.572;2023-02-28T19:24:51;3.45;;;2.00;;
40489;SDS011;26196;52.302;10.572;2023-02-28T19:28:52;4.78;;;2.10;;
40489;SDS011;26196;52.302;10.572;2023-02-28T19:32:52;8.02;;;2.00;;
40489;SDS011;26196;52.302;10.572;2023-02-28T19:36:53;5.43;;;2.47;;
40489;SDS011;26196;52.302;10.572;2023-02-28T19:41:03;5.35;;;2.55;;
40489;SDS011;26196;52.302;10.572;2023-02-28T19:45:05;6.75;;;2.63;;
40489;SDS011;26196;52.302;10.572;2023-02-28T19:49:08;7.13;;;2.92;;
40489;SDS011;26196;52.302;10.572;2023-02-28T19:53:09;4.88;;;2.75;;
40489;SDS011;26196;52.302;10.572;2023-02-28T19:57:09;3.92;;;2.92;;
40489;SDS011;26196;52.302;10.572;2023-02-28T20:01:14;5.35;;;2.78;;
40489;SDS011;26196;52.302;10.572;2023-02-28T20:05:25;6.90;;;3.00;;
40489;SDS011;26196;52.302;10.572;2023-02-28T20:09:28;6.97;;;3.17;;
40489;SDS011;26196;52.302;10.572;2023-02-28T20:13:29;4.82;;;2.42;;
40489;SDS011;26196;52.302;10.572;2023-02-28T20:17:30;8.68;;;2.90;;
40489;SDS011;26196;52.302;10.572;2023-02-28T20:21:33;5.60;;;2.90;;
40489;SDS011;26196;52.302;10.572;2023-02-28T20:25:37;7.22;;;3.50;;
40489;SDS011;26196;52.302;10.572;2023-02-28T20:29:38;8.77;;;2.97;;
40489;SDS011;26196;52.302;10.572;2023-02-28T20:33:42;6.35;;;2.97;;
40489;SDS011;26196;52.302;10.572;2023-02-28T20:37:42;7.80;;;3.15;;
40489;SDS011;26196;52.302;10.572;2023-02-28T20:41:43;6.25;;;3.67;;
40489;SDS011;26196;52.302;10.572;2023-02-28T20:45:51;5.05;;;2.90;;
40489;SDS011;26196;52.302;10.572;2023-02-28T20:49:52;5.40;;;3.55;;
40489;SDS011;26196;52.302;10.572;2023-02-28T20:53:52;7.57;;;2.92;;
40489;SDS011;26196;52.302;10.572;2023-02-28T20:58:06;5.68;;;2.55;;
40489;SDS011;26196;52.302;10.572;2023-02-28T21:02:20;6.35;;;3.95;;
40489;SDS011;26196;52.302;10.572;2023-02-28T21:06:22;5.95;;;3.40;;
40489;SDS011;26196;52.302;10.572;2023-02-28T21:10:26;5.97;;;3.15;;
40489;SDS011;26196;52.302;10.572;2023-02-28T21:14:26;5.47;;;3.20;;
40489;SDS011;26196;52.302;10.572;2023-02-28T21:23:03;5.37;;;2.90;;
40489;SDS011;26196;52.302;10.572;2023-02-28T21:27:03;5.07;;;2.90;;
40489;SDS011;26196;52.302;10.572;2023-02-28T21:35:10;5.22;;;3.53;;
40489;SDS011;26196;52.302;10.572;2023-02-28T21:39:29;5.53;;;4.10;;
40489;SDS011;26196;52.302;10.572;2023-02-28T21:43:32;7.50;;;4.00;;
40489;SDS011;26196;52.302;10.572;2023-02-28T21:47:32;4.00;;;2.80;;
40489;SDS011;26196;52.302;10.572;2023-02-28T21:51:33;6.45;;;3.72;;
40489;SDS011;26196;52.302;10.572;2023-02-28T21:55:34;5.45;;;3.35;;
40489;SDS011;26196;52.302;10.572;2023-02-28T21:59:34;4.45;;;3.42;;
40489;SDS011;26196;52.302;10.572;2023-02-28T22:07:40;6.65;;;3.50;;
40489;SDS011;26196;52.302;10.572;2023-02-28T22:11:41;6.80;;;3.50;;
40489;SDS011;26196;52.302;10.572;2023-02-28T22:15:47;5.35;;;3.72;;
40489;SDS011;26196;52.302;10.572;2023-02-28T22:19:47;5.47;;;3.22;;
40489;SDS011;26196;52.302;10.572;2023-02-28T22:23:57;5.47;;;3.80;;
40489;SDS011;26196;52.302;10.572;2023-02-28T22:27:57;4.10;;;3.17;;
40489;SDS011;26196;52.302;10.572;2023-02-28T22:31:57;6.40;;;3.42;;
40489;SDS011;26196;52.302;10.572;2023-02-28T22:40:06;5.43;;;2.95;;
40489;SDS011;26196;52.302;10.572;2023-02-28T22:44:09;8.05;;;3.67;;
40489;SDS011;26196;52.302;10.572;2023-02-28T22:48:28;7.65;;;4.88;;
40489;SDS011;26196;52.302;10.572;2023-02-28T22:52:29;7.10;;;4.80;;
40489;SDS011;26196;52.302;10.572;2023-02-28T22:56:30;9.88;;;4.68;;
40489;SDS011;26196;52.302;10.572;2023-02-28T23:00:31;8.50;;;4.95;;
40489;SDS011;26196;52.302;10.572;2023-02-28T23:04:31;9.55;;;5.03;;
40489;SDS011;26196;52.302;10.572;2023-02-28T23:08:34;7.07;;;4.13;;
40489;SDS011;26196;52.302;10.572;2023-02-28T23:12:35;6.53;;;3.83;;
40489;SDS011;26196;52.302;10.572;2023-02-28T23:16:38;7.03;;;4.10;;
40489;SDS011;26196;52.302;10.572;2023-02-28T23:20:46;8.77;;;4.60;;
40489;SDS011;26196;52.302;10.572;2023-02-28T23:24:46;6.55;;;3.97;;
40489;SDS011;26196;52.302;10.572;2023-02-28T23:28:47;7.68;;;4.00;;
40489;SDS011;26196;52.302;10.572;2023-02-28T23:32:48;6.28;;;4.07;;
40489;SDS011;26196;52.302;10.572;2023-02-28T23:36:49;9.38;;;3.28;;
40489;SDS011;26196;52.302;10.572;2023-02-28T23:40:50;7.32;;;4.15;;
40489;SDS011;26196;52.302;10.572;2023-02-28T23:44:50;6.38;;;3.65;;
40489;SDS011;26196;52.302;10.572;2023-02-28T23:48:50;5.65;;;3.58;;
40489;SDS011;26196;52.302;10.572;2023-02-28T23:52:51;6.63;;;3.85;;
40489;SDS011;26196;52.302;10.572;2023-02-28T23:56:55;7.57;;;3.58;;
